sensor_id;sensor_type;location;lat;lon;timestamp;temperature;humidity
6865;DHT22;3471;49.678;8.388;2022-10-29T00:02:24;17.70;99.90
6865;DHT22;3471;49.678;8.388;2022-10-29T00:04:50;17.70;99.90
6865;DHT22;3471;49.678;8.388;2022-10-29T00:07:15;17.70;99.90
6865;DHT22;3471;49.678;8.388;2022-10-29T00:09:41;17.60;99.90
6865;DHT22;3471;49.678;8.388;2022-10-29T00:12:07;17.70;99.90
6865;DHT22;3471;49.678;8.388;2022-10-29T00:14:32;17.70;99.90
6865;DHT22;3471;49.678;8.388;2022-10-29T00:16:58;17.70;99.90
6865;DHT22;3471;49.678;8.388;2022-10-29T00:19:24;17.70;99.90
6865;DHT22;3471;49.678;8.388;2022-10-29T00:21:50;17.70;99.90
6865;DHT22;3471;49.678;8.388;2022-10-29T00:24:16;17.60;99.90
6865;DHT22;3471;49.678;8.388;2022-10-29T00:26:42;17.60;99.90
6865;DHT22;3471;49.678;8.388;2022-10-29T00:29:08;17.60;99.90
6865;DHT22;3471;49.678;8.388;2022-10-29T00:31:33;17.60;99.90
6865;DHT22;3471;49.678;8.388;2022-10-29T00:33:59;17.50;99.90
6865;DHT22;3471;49.678;8.388;2022-10-29T00:36:26;17.40;99.90
6865;DHT22;3471;49.678;8.388;2022-10-29T00:38:52;17.40;99.90
6865;DHT22;3471;49.678;8.388;2022-10-29T00:41:20;17.40;99.90
6865;DHT22;3471;49.678;8.388;2022-10-29T00:43:49;17.40;99.90
6865;DHT22;3471;49.678;8.388;2022-10-29T00:46:27;17.40;99.90
6865;DHT22;3471;49.678;8.388;2022-10-29T00:48:56;17.40;99.90
6865;DHT22;3471;49.678;8.388;2022-10-29T00:51:24;17.30;99.90
6865;DHT22;3471;49.678;8.388;2022-10-29T00:54:01;17.30;99.90
6865;DHT22;3471;49.678;8.388;2022-10-29T00:56:28;17.20;99.90
6865;DHT22;3471;49.678;8.388;2022-10-29T00:58:55;17.20;99.90
6865;DHT22;3471;49.678;8.388;2022-10-29T01:01:20;17.20;99.90
6865;DHT22;3471;49.678;8.388;2022-10-29T01:03:46;17.20;99.90
6865;DHT22;3471;49.678;8.388;2022-10-29T01:06:13;17.20;99.90
6865;DHT22;3471;49.678;8.388;2022-10-29T01:08:39;17.20;99.90
6865;DHT22;3471;49.678;8.388;2022-10-29T01:14:20;17.20;99.90
6865;DHT22;3471;49.678;8.388;2022-10-29T01:25:13;17.40;99.90
6865;DHT22;3471;49.678;8.388;2022-10-29T01:38:23;17.40;99.90
6865;DHT22;3471;49.678;8.388;2022-10-29T01:41:16;17.40;99.90
6865;DHT22;3471;49.678;8.388;2022-10-29T01:46:41;17.30;99.90
6865;DHT22;3471;49.678;8.388;2022-10-29T01:49:16;17.30;99.90
6865;DHT22;3471;49.678;8.388;2022-10-29T01:51:43;17.20;99.90
6865;DHT22;3471;49.678;8.388;2022-10-29T01:54:10;17.20;99.90
6865;DHT22;3471;49.678;8.388;2022-10-29T01:56:36;17.20;99.90
6865;DHT22;3471;49.678;8.388;2022-10-29T01:59:06;17.20;99.90
6865;DHT22;3471;49.678;8.388;2022-10-29T02:01:54;17.20;99.90
6865;DHT22;3471;49.678;8.388;2022-10-29T02:04:51;17.20;99.90
6865;DHT22;3471;49.678;8.388;2022-10-29T02:10:11;17.10;99.90
6865;DHT22;3471;49.678;8.388;2022-10-29T02:12:45;17.10;99.90
6865;DHT22;3471;49.678;8.388;2022-10-29T02:15:18;17.10;99.90
6865;DHT22;3471;49.678;8.388;2022-10-29T02:17:45;17.10;99.90
6865;DHT22;3471;49.678;8.388;2022-10-29T02:20:12;17.10;99.90
6865;DHT22;3471;49.678;8.388;2022-10-29T02:22:38;17.00;99.90
6865;DHT22;3471;49.678;8.388;2022-10-29T02:25:05;17.00;99.90
6865;DHT22;3471;49.678;8.388;2022-10-29T02:27:31;16.90;99.90
6865;DHT22;3471;49.678;8.388;2022-10-29T02:29:56;16.90;99.90
6865;DHT22;3471;49.678;8.388;2022-10-29T02:32:22;16.80;99.90
6865;DHT22;3471;49.678;8.388;2022-10-29T02:34:47;16.80;99.90
6865;DHT22;3471;49.678;8.388;2022-10-29T02:37:13;16.70;99.90
6865;DHT22;3471;49.678;8.388;2022-10-29T02:39:38;16.70;99.90
6865;DHT22;3471;49.678;8.388;2022-10-29T02:42:04;16.70;99.90
6865;DHT22;3471;49.678;8.388;2022-10-29T02:44:30;16.70;99.90
6865;DHT22;3471;49.678;8.388;2022-10-29T02:46:55;16.60;99.90
6865;DHT22;3471;49.678;8.388;2022-10-29T02:49:21;16.60;99.90
6865;DHT22;3471;49.678;8.388;2022-10-29T02:51:46;16.60;99.90
6865;DHT22;3471;49.678;8.388;2022-10-29T02:54:12;16.50;99.90
6865;DHT22;3471;49.678;8.388;2022-10-29T02:56:38;16.50;99.90
6865;DHT22;3471;49.678;8.388;2022-10-29T02:59:03;16.50;99.90
6865;DHT22;3471;49.678;8.388;2022-10-29T03:01:29;16.50;99.90
6865;DHT22;3471;49.678;8.388;2022-10-29T03:03:54;16.40;99.90
6865;DHT22;3471;49.678;8.388;2022-10-29T03:06:20;16.40;99.90
6865;DHT22;3471;49.678;8.388;2022-10-29T03:08:46;16.40;99.90
6865;DHT22;3471;49.678;8.388;2022-10-29T03:11:12;16.30;99.90
6865;DHT22;3471;49.678;8.388;2022-10-29T03:13:38;16.20;99.90
6865;DHT22;3471;49.678;8.388;2022-10-29T03:16:04;16.20;99.90
6865;DHT22;3471;49.678;8.388;2022-10-29T03:18:30;16.20;99.90
6865;DHT22;3471;49.678;8.388;2022-10-29T03:20:55;16.20;99.90
6865;DHT22;3471;49.678;8.388;2022-10-29T03:23:21;16.20;99.90
6865;DHT22;3471;49.678;8.388;2022-10-29T03:25:53;16.20;99.90
6865;DHT22;3471;49.678;8.388;2022-10-29T03:28:20;16.30;99.90
6865;DHT22;3471;49.678;8.388;2022-10-29T03:30:46;16.30;99.90
6865;DHT22;3471;49.678;8.388;2022-10-29T03:33:12;16.30;99.90
6865;DHT22;3471;49.678;8.388;2022-10-29T03:35:37;16.30;99.90
6865;DHT22;3471;49.678;8.388;2022-10-29T03:38:03;16.30;99.90
6865;DHT22;3471;49.678;8.388;2022-10-29T03:40:28;16.30;99.90
6865;DHT22;3471;49.678;8.388;2022-10-29T03:42:54;16.30;99.90
6865;DHT22;3471;49.678;8.388;2022-10-29T03:45:19;16.30;99.90
6865;DHT22;3471;49.678;8.388;2022-10-29T03:47:45;16.30;99.90
6865;DHT22;3471;49.678;8.388;2022-10-29T03:50:11;16.30;99.90
6865;DHT22;3471;49.678;8.388;2022-10-29T03:52:36;16.20;99.90
6865;DHT22;3471;49.678;8.388;2022-10-29T03:55:02;16.20;99.90
6865;DHT22;3471;49.678;8.388;2022-10-29T03:57:28;16.20;99.90
6865;DHT22;3471;49.678;8.388;2022-10-29T03:59:53;16.20;99.90
6865;DHT22;3471;49.678;8.388;2022-10-29T04:02:20;16.10;99.90
6865;DHT22;3471;49.678;8.388;2022-10-29T04:04:46;16.10;99.90
6865;DHT22;3471;49.678;8.388;2022-10-29T04:07:11;16.10;99.90
6865;DHT22;3471;49.678;8.388;2022-10-29T04:09:37;16.10;99.90
6865;DHT22;3471;49.678;8.388;2022-10-29T04:12:03;16.10;99.90
6865;DHT22;3471;49.678;8.388;2022-10-29T04:14:28;16.10;99.90
6865;DHT22;3471;49.678;8.388;2022-10-29T04:16:54;16.00;99.90
6865;DHT22;3471;49.678;8.388;2022-10-29T04:19:20;16.00;99.90
6865;DHT22;3471;49.678;8.388;2022-10-29T04:21:45;16.10;99.90
6865;DHT22;3471;49.678;8.388;2022-10-29T04:24:11;16.10;99.90
6865;DHT22;3471;49.678;8.388;2022-10-29T04:26:36;16.10;99.90
6865;DHT22;3471;49.678;8.388;2022-10-29T04:29:02;16.10;99.90
6865;DHT22;3471;49.678;8.388;2022-10-29T04:31:27;16.10;99.90
6865;DHT22;3471;49.678;8.388;2022-10-29T04:33:53;16.10;99.90
6865;DHT22;3471;49.678;8.388;2022-10-29T04:36:19;16.20;99.90
6865;DHT22;3471;49.678;8.388;2022-10-29T04:38:44;16.20;99.90
6865;DHT22;3471;49.678;8.388;2022-10-29T04:41:10;16.20;99.90
6865;DHT22;3471;49.678;8.388;2022-10-29T04:43:35;16.20;99.90
6865;DHT22;3471;49.678;8.388;2022-10-29T04:46:01;16.20;99.90
6865;DHT22;3471;49.678;8.388;2022-10-29T04:48:27;16.20;99.90
6865;DHT22;3471;49.678;8.388;2022-10-29T04:50:53;16.20;99.90
6865;DHT22;3471;49.678;8.388;2022-10-29T04:53:19;16.20;99.90
6865;DHT22;3471;49.678;8.388;2022-10-29T04:55:45;16.20;99.90
6865;DHT22;3471;49.678;8.388;2022-10-29T04:58:13;16.20;99.90
6865;DHT22;3471;49.678;8.388;2022-10-29T05:00:39;16.20;99.90
6865;DHT22;3471;49.678;8.388;2022-10-29T05:03:05;16.30;99.90
6865;DHT22;3471;49.678;8.388;2022-10-29T05:05:31;16.30;99.90
6865;DHT22;3471;49.678;8.388;2022-10-29T05:07:59;16.30;99.90
6865;DHT22;3471;49.678;8.388;2022-10-29T05:10:30;16.30;99.90
6865;DHT22;3471;49.678;8.388;2022-10-29T05:13:10;16.30;99.90
6865;DHT22;3471;49.678;8.388;2022-10-29T05:15:36;16.30;99.90
6865;DHT22;3471;49.678;8.388;2022-10-29T05:18:02;16.30;99.90
6865;DHT22;3471;49.678;8.388;2022-10-29T05:20:28;16.30;99.90
6865;DHT22;3471;49.678;8.388;2022-10-29T05:23:07;16.40;99.90
6865;DHT22;3471;49.678;8.388;2022-10-29T05:25:35;16.30;99.90
6865;DHT22;3471;49.678;8.388;2022-10-29T05:28:10;16.40;99.90
6865;DHT22;3471;49.678;8.388;2022-10-29T05:30:37;16.40;99.90
6865;DHT22;3471;49.678;8.388;2022-10-29T05:33:06;16.40;99.90
6865;DHT22;3471;49.678;8.388;2022-10-29T05:35:32;16.40;99.90
6865;DHT22;3471;49.678;8.388;2022-10-29T05:37:58;16.30;99.90
6865;DHT22;3471;49.678;8.388;2022-10-29T05:40:25;16.30;99.90
6865;DHT22;3471;49.678;8.388;2022-10-29T05:42:51;16.30;99.90
6865;DHT22;3471;49.678;8.388;2022-10-29T05:45:16;16.30;99.90
6865;DHT22;3471;49.678;8.388;2022-10-29T05:47:42;16.20;99.90
6865;DHT22;3471;49.678;8.388;2022-10-29T05:50:08;16.20;99.90
6865;DHT22;3471;49.678;8.388;2022-10-29T05:52:34;16.20;99.90
6865;DHT22;3471;49.678;8.388;2022-10-29T05:54:59;16.20;99.90
6865;DHT22;3471;49.678;8.388;2022-10-29T05:57:26;16.20;99.90
6865;DHT22;3471;49.678;8.388;2022-10-29T05:59:52;16.20;99.90
6865;DHT22;3471;49.678;8.388;2022-10-29T06:02:18;16.20;99.90
6865;DHT22;3471;49.678;8.388;2022-10-29T06:04:43;16.20;99.90
6865;DHT22;3471;49.678;8.388;2022-10-29T06:07:09;16.20;99.90
6865;DHT22;3471;49.678;8.388;2022-10-29T06:09:34;16.20;99.90
6865;DHT22;3471;49.678;8.388;2022-10-29T06:12:00;16.20;99.90
6865;DHT22;3471;49.678;8.388;2022-10-29T06:14:25;16.30;99.90
6865;DHT22;3471;49.678;8.388;2022-10-29T06:16:51;16.30;99.90
6865;DHT22;3471;49.678;8.388;2022-10-29T06:19:17;16.30;99.90
6865;DHT22;3471;49.678;8.388;2022-10-29T06:21:42;16.40;99.90
6865;DHT22;3471;49.678;8.388;2022-10-29T06:24:08;16.30;99.90
6865;DHT22;3471;49.678;8.388;2022-10-29T06:26:35;16.40;99.90
6865;DHT22;3471;49.678;8.388;2022-10-29T06:29:02;16.40;99.90
6865;DHT22;3471;49.678;8.388;2022-10-29T06:31:28;16.40;99.90
6865;DHT22;3471;49.678;8.388;2022-10-29T06:33:54;16.40;99.90
6865;DHT22;3471;49.678;8.388;2022-10-29T06:36:19;16.40;99.90
6865;DHT22;3471;49.678;8.388;2022-10-29T06:38:45;16.30;99.90
6865;DHT22;3471;49.678;8.388;2022-10-29T06:41:11;16.40;99.90
6865;DHT22;3471;49.678;8.388;2022-10-29T06:43:36;16.40;99.90
6865;DHT22;3471;49.678;8.388;2022-10-29T06:46:02;16.40;99.90
6865;DHT22;3471;49.678;8.388;2022-10-29T06:48:28;16.50;99.90
6865;DHT22;3471;49.678;8.388;2022-10-29T06:50:53;16.50;99.90
6865;DHT22;3471;49.678;8.388;2022-10-29T06:53:19;16.50;99.90
6865;DHT22;3471;49.678;8.388;2022-10-29T06:55:45;16.60;99.90
6865;DHT22;3471;49.678;8.388;2022-10-29T06:58:13;16.60;99.90
6865;DHT22;3471;49.678;8.388;2022-10-29T07:00:39;16.70;99.90
6865;DHT22;3471;49.678;8.388;2022-10-29T07:03:04;16.70;99.90
6865;DHT22;3471;49.678;8.388;2022-10-29T07:05:31;16.70;99.90
6865;DHT22;3471;49.678;8.388;2022-10-29T07:07:58;16.70;99.90
6865;DHT22;3471;49.678;8.388;2022-10-29T07:10:25;16.80;99.90
6865;DHT22;3471;49.678;8.388;2022-10-29T07:12:51;16.90;99.90
6865;DHT22;3471;49.678;8.388;2022-10-29T07:15:17;16.90;99.90
6865;DHT22;3471;49.678;8.388;2022-10-29T07:17:42;16.90;99.90
6865;DHT22;3471;49.678;8.388;2022-10-29T07:20:18;17.00;99.90
6865;DHT22;3471;49.678;8.388;2022-10-29T07:22:45;17.00;99.90
6865;DHT22;3471;49.678;8.388;2022-10-29T07:25:11;17.00;99.90
6865;DHT22;3471;49.678;8.388;2022-10-29T07:27:37;17.00;99.90
6865;DHT22;3471;49.678;8.388;2022-10-29T07:30:02;17.10;99.90
6865;DHT22;3471;49.678;8.388;2022-10-29T07:32:28;17.10;99.90
6865;DHT22;3471;49.678;8.388;2022-10-29T07:34:53;17.10;99.90
6865;DHT22;3471;49.678;8.388;2022-10-29T07:37:19;17.10;99.90
6865;DHT22;3471;49.678;8.388;2022-10-29T07:39:45;17.20;99.90
6865;DHT22;3471;49.678;8.388;2022-10-29T07:42:10;17.30;99.90
6865;DHT22;3471;49.678;8.388;2022-10-29T07:44:36;17.40;99.90
6865;DHT22;3471;49.678;8.388;2022-10-29T07:47:01;17.40;99.90
6865;DHT22;3471;49.678;8.388;2022-10-29T07:49:27;17.50;99.90
6865;DHT22;3471;49.678;8.388;2022-10-29T07:51:53;17.60;99.90
6865;DHT22;3471;49.678;8.388;2022-10-29T07:54:18;17.60;99.90
6865;DHT22;3471;49.678;8.388;2022-10-29T07:56:44;17.70;99.90
6865;DHT22;3471;49.678;8.388;2022-10-29T07:59:09;17.70;99.90
6865;DHT22;3471;49.678;8.388;2022-10-29T08:01:38;17.80;99.90
6865;DHT22;3471;49.678;8.388;2022-10-29T08:04:04;17.90;99.90
6865;DHT22;3471;49.678;8.388;2022-10-29T08:06:30;17.90;99.90
6865;DHT22;3471;49.678;8.388;2022-10-29T08:08:56;18.00;99.90
6865;DHT22;3471;49.678;8.388;2022-10-29T08:11:22;18.00;99.90
6865;DHT22;3471;49.678;8.388;2022-10-29T08:13:48;18.10;99.90
6865;DHT22;3471;49.678;8.388;2022-10-29T08:16:13;18.10;99.90
6865;DHT22;3471;49.678;8.388;2022-10-29T08:18:39;18.10;99.90
6865;DHT22;3471;49.678;8.388;2022-10-29T08:21:05;18.10;99.90
6865;DHT22;3471;49.678;8.388;2022-10-29T08:23:30;18.20;99.90
6865;DHT22;3471;49.678;8.388;2022-10-29T08:25:57;18.20;99.90
6865;DHT22;3471;49.678;8.388;2022-10-29T08:28:22;18.20;99.90
6865;DHT22;3471;49.678;8.388;2022-10-29T08:30:49;18.20;99.90
6865;DHT22;3471;49.678;8.388;2022-10-29T08:33:15;18.20;99.90
6865;DHT22;3471;49.678;8.388;2022-10-29T08:35:40;18.20;99.90
6865;DHT22;3471;49.678;8.388;2022-10-29T08:38:06;18.20;99.90
6865;DHT22;3471;49.678;8.388;2022-10-29T08:45:58;18.30;99.90
6865;DHT22;3471;49.678;8.388;2022-10-29T08:50:57;18.50;99.90
6865;DHT22;3471;49.678;8.388;2022-10-29T08:53:35;18.60;99.90
6865;DHT22;3471;49.678;8.388;2022-10-29T08:56:09;18.70;99.90
6865;DHT22;3471;49.678;8.388;2022-10-29T08:58:44;18.80;99.90
6865;DHT22;3471;49.678;8.388;2022-10-29T09:01:12;18.90;99.90
6865;DHT22;3471;49.678;8.388;2022-10-29T09:03:37;19.00;99.90
6865;DHT22;3471;49.678;8.388;2022-10-29T09:06:40;19.10;99.90
6865;DHT22;3471;49.678;8.388;2022-10-29T09:12:28;19.30;99.90
6865;DHT22;3471;49.678;8.388;2022-10-29T09:26:25;19.80;99.90
6865;DHT22;3471;49.678;8.388;2022-10-29T09:29:05;20.10;99.90
6865;DHT22;3471;49.678;8.388;2022-10-29T09:31:46;20.40;99.90
6865;DHT22;3471;49.678;8.388;2022-10-29T09:34:17;20.70;99.90
6865;DHT22;3471;49.678;8.388;2022-10-29T09:36:48;21.00;99.90
6865;DHT22;3471;49.678;8.388;2022-10-29T09:39:24;21.30;99.90
6865;DHT22;3471;49.678;8.388;2022-10-29T09:41:52;21.60;99.90
6865;DHT22;3471;49.678;8.388;2022-10-29T09:44:23;21.90;99.90
6865;DHT22;3471;49.678;8.388;2022-10-29T09:49:57;22.20;99.90
6865;DHT22;3471;49.678;8.388;2022-10-29T09:52:30;22.40;99.90
6865;DHT22;3471;49.678;8.388;2022-10-29T09:54:58;22.50;99.90
6865;DHT22;3471;49.678;8.388;2022-10-29T09:57:27;22.60;99.90
6865;DHT22;3471;49.678;8.388;2022-10-29T10:00:05;22.70;99.90
6865;DHT22;3471;49.678;8.388;2022-10-29T10:02:37;22.80;99.90
6865;DHT22;3471;49.678;8.388;2022-10-29T10:05:17;22.90;99.90
6865;DHT22;3471;49.678;8.388;2022-10-29T10:08:13;23.00;99.90
6865;DHT22;3471;49.678;8.388;2022-10-29T10:10:54;23.10;99.90
6865;DHT22;3471;49.678;8.388;2022-10-29T10:13:23;23.20;99.90
6865;DHT22;3471;49.678;8.388;2022-10-29T10:15:54;23.40;99.90
6865;DHT22;3471;49.678;8.388;2022-10-29T10:18:24;23.60;99.90
6865;DHT22;3471;49.678;8.388;2022-10-29T10:21:06;23.80;99.90
6865;DHT22;3471;49.678;8.388;2022-10-29T10:23:43;24.10;99.90
6865;DHT22;3471;49.678;8.388;2022-10-29T10:26:28;24.30;99.90
6865;DHT22;3471;49.678;8.388;2022-10-29T10:29:19;24.50;99.90
6865;DHT22;3471;49.678;8.388;2022-10-29T10:34:35;25.10;99.90
6865;DHT22;3471;49.678;8.388;2022-10-29T10:37:12;25.50;99.90
6865;DHT22;3471;49.678;8.388;2022-10-29T10:45:11;25.90;99.90
6865;DHT22;3471;49.678;8.388;2022-10-29T10:47:41;25.90;99.90
6865;DHT22;3471;49.678;8.388;2022-10-29T10:50:18;25.90;99.90
6865;DHT22;3471;49.678;8.388;2022-10-29T10:52:44;26.00;99.90
6865;DHT22;3471;49.678;8.388;2022-10-29T10:58:07;26.10;99.90
6865;DHT22;3471;49.678;8.388;2022-10-29T11:00:42;26.20;99.90
6865;DHT22;3471;49.678;8.388;2022-10-29T11:03:20;26.10;99.90
6865;DHT22;3471;49.678;8.388;2022-10-29T11:06:02;26.00;99.90
6865;DHT22;3471;49.678;8.388;2022-10-29T11:08:49;26.00;99.90
6865;DHT22;3471;49.678;8.388;2022-10-29T11:11:38;26.10;99.90
6865;DHT22;3471;49.678;8.388;2022-10-29T11:14:11;26.00;99.90
6865;DHT22;3471;49.678;8.388;2022-10-29T11:16:43;25.90;99.90
6865;DHT22;3471;49.678;8.388;2022-10-29T11:24:54;25.50;99.90
6865;DHT22;3471;49.678;8.388;2022-10-29T11:30:11;25.30;99.90
6865;DHT22;3471;49.678;8.388;2022-10-29T11:35:39;24.90;99.90
6865;DHT22;3471;49.678;8.388;2022-10-29T11:40:56;24.50;99.90
6865;DHT22;3471;49.678;8.388;2022-10-29T11:43:23;24.30;99.90
6865;DHT22;3471;49.678;8.388;2022-10-29T11:54:35;23.80;99.90
6865;DHT22;3471;49.678;8.388;2022-10-29T11:57:27;23.70;99.90
6865;DHT22;3471;49.678;8.388;2022-10-29T12:00:04;23.50;99.90
6865;DHT22;3471;49.678;8.388;2022-10-29T12:05:57;23.30;99.90
6865;DHT22;3471;49.678;8.388;2022-10-29T12:13:38;23.20;99.90
6865;DHT22;3471;49.678;8.388;2022-10-29T12:16:19;23.30;99.90
6865;DHT22;3471;49.678;8.388;2022-10-29T12:19:01;23.40;99.90
6865;DHT22;3471;49.678;8.388;2022-10-29T12:30:03;23.70;99.90
6865;DHT22;3471;49.678;8.388;2022-10-29T12:38:38;23.70;99.90
6865;DHT22;3471;49.678;8.388;2022-10-29T12:41:26;23.70;99.90
6865;DHT22;3471;49.678;8.388;2022-10-29T12:46:57;23.70;99.90
6865;DHT22;3471;49.678;8.388;2022-10-29T12:52:14;23.80;99.90
6865;DHT22;3471;49.678;8.388;2022-10-29T12:54:45;24.00;99.90
6865;DHT22;3471;49.678;8.388;2022-10-29T12:59:37;24.70;99.90
6865;DHT22;3471;49.678;8.388;2022-10-29T13:18:18;27.40;99.90
6865;DHT22;3471;49.678;8.388;2022-10-29T13:20:50;27.70;99.90
6865;DHT22;3471;49.678;8.388;2022-10-29T13:25:51;27.80;99.90
6865;DHT22;3471;49.678;8.388;2022-10-29T13:30:45;27.80;99.90
6865;DHT22;3471;49.678;8.388;2022-10-29T13:36:04;27.90;99.90
6865;DHT22;3471;49.678;8.388;2022-10-29T13:38:43;27.90;99.90
6865;DHT22;3471;49.678;8.388;2022-10-29T13:43:36;27.40;99.90
6865;DHT22;3471;49.678;8.388;2022-10-29T13:48:41;27.00;99.90
6865;DHT22;3471;49.678;8.388;2022-10-29T13:51:10;27.00;99.90
6865;DHT22;3471;49.678;8.388;2022-10-29T13:53:51;27.10;99.90
6865;DHT22;3471;49.678;8.388;2022-10-29T13:56:32;27.20;99.90
6865;DHT22;3471;49.678;8.388;2022-10-29T13:59:01;27.30;99.90
6865;DHT22;3471;49.678;8.388;2022-10-29T14:01:31;27.40;99.90
6865;DHT22;3471;49.678;8.388;2022-10-29T14:04:03;27.60;99.90
6865;DHT22;3471;49.678;8.388;2022-10-29T14:06:36;27.80;99.90
6865;DHT22;3471;49.678;8.388;2022-10-29T14:11:56;27.90;99.90
6865;DHT22;3471;49.678;8.388;2022-10-29T14:14:26;27.80;99.90
6865;DHT22;3471;49.678;8.388;2022-10-29T14:17:11;27.80;99.90
6865;DHT22;3471;49.678;8.388;2022-10-29T14:19:36;27.70;99.90
6865;DHT22;3471;49.678;8.388;2022-10-29T14:22:35;27.60;99.90
6865;DHT22;3471;49.678;8.388;2022-10-29T14:25:03;27.40;99.90
6865;DHT22;3471;49.678;8.388;2022-10-29T14:27:44;27.00;99.90
6865;DHT22;3471;49.678;8.388;2022-10-29T14:30:12;26.70;99.90
6865;DHT22;3471;49.678;8.388;2022-10-29T14:32:38;26.40;99.90
6865;DHT22;3471;49.678;8.388;2022-10-29T14:35:05;26.00;99.90
6865;DHT22;3471;49.678;8.388;2022-10-29T14:37:34;25.70;99.90
6865;DHT22;3471;49.678;8.388;2022-10-29T14:40:18;25.50;99.90
6865;DHT22;3471;49.678;8.388;2022-10-29T14:42:51;25.20;99.90
6865;DHT22;3471;49.678;8.388;2022-10-29T14:45:27;24.90;99.90
6865;DHT22;3471;49.678;8.388;2022-10-29T14:48:01;24.70;99.90
6865;DHT22;3471;49.678;8.388;2022-10-29T14:50:33;24.50;99.90
6865;DHT22;3471;49.678;8.388;2022-10-29T14:53:05;24.30;99.90
6865;DHT22;3471;49.678;8.388;2022-10-29T14:55:45;24.10;99.90
6865;DHT22;3471;49.678;8.388;2022-10-29T14:58:23;23.90;99.90
6865;DHT22;3471;49.678;8.388;2022-10-29T15:03:29;23.60;99.90
6865;DHT22;3471;49.678;8.388;2022-10-29T15:06:19;23.50;99.90
6865;DHT22;3471;49.678;8.388;2022-10-29T15:09:00;23.40;99.90
6865;DHT22;3471;49.678;8.388;2022-10-29T15:14:00;23.10;99.90
6865;DHT22;3471;49.678;8.388;2022-10-29T15:16:26;23.00;99.90
6865;DHT22;3471;49.678;8.388;2022-10-29T15:18:52;22.90;99.90
6865;DHT22;3471;49.678;8.388;2022-10-29T15:21:23;22.80;99.90
6865;DHT22;3471;49.678;8.388;2022-10-29T15:24:12;22.70;99.90
6865;DHT22;3471;49.678;8.388;2022-10-29T15:26:54;22.60;99.90
6865;DHT22;3471;49.678;8.388;2022-10-29T15:29:26;22.50;99.90
6865;DHT22;3471;49.678;8.388;2022-10-29T15:31:55;22.40;99.90
6865;DHT22;3471;49.678;8.388;2022-10-29T15:34:32;22.40;99.90
6865;DHT22;3471;49.678;8.388;2022-10-29T15:40:00;22.20;99.90
6865;DHT22;3471;49.678;8.388;2022-10-29T15:42:28;22.20;99.90
6865;DHT22;3471;49.678;8.388;2022-10-29T15:47:33;22.00;99.90
6865;DHT22;3471;49.678;8.388;2022-10-29T15:49:59;21.90;99.90
6865;DHT22;3471;49.678;8.388;2022-10-29T15:52:44;21.90;99.90
6865;DHT22;3471;49.678;8.388;2022-10-29T15:55:21;21.80;99.90
6865;DHT22;3471;49.678;8.388;2022-10-29T15:57:48;21.70;99.90
6865;DHT22;3471;49.678;8.388;2022-10-29T16:00:17;21.70;99.90
6865;DHT22;3471;49.678;8.388;2022-10-29T16:02:43;21.60;99.90
6865;DHT22;3471;49.678;8.388;2022-10-29T16:05:11;21.50;99.90
6865;DHT22;3471;49.678;8.388;2022-10-29T16:07:38;21.40;99.90
6865;DHT22;3471;49.678;8.388;2022-10-29T16:10:04;21.30;99.90
6865;DHT22;3471;49.678;8.388;2022-10-29T16:12:30;21.20;99.90
6865;DHT22;3471;49.678;8.388;2022-10-29T16:14:55;21.10;99.90
6865;DHT22;3471;49.678;8.388;2022-10-29T16:17:21;21.00;99.90
6865;DHT22;3471;49.678;8.388;2022-10-29T16:19:46;20.90;99.90
6865;DHT22;3471;49.678;8.388;2022-10-29T16:22:13;20.80;99.90
6865;DHT22;3471;49.678;8.388;2022-10-29T16:24:39;20.70;99.90
6865;DHT22;3471;49.678;8.388;2022-10-29T16:27:15;20.60;99.90
6865;DHT22;3471;49.678;8.388;2022-10-29T16:29:41;20.60;99.90
6865;DHT22;3471;49.678;8.388;2022-10-29T16:32:15;20.50;99.90
6865;DHT22;3471;49.678;8.388;2022-10-29T16:34:41;20.50;99.90
6865;DHT22;3471;49.678;8.388;2022-10-29T16:37:17;20.40;99.90
6865;DHT22;3471;49.678;8.388;2022-10-29T16:39:43;20.30;99.90
6865;DHT22;3471;49.678;8.388;2022-10-29T16:42:34;20.30;99.90
6865;DHT22;3471;49.678;8.388;2022-10-29T16:45:00;20.20;99.90
6865;DHT22;3471;49.678;8.388;2022-10-29T16:47:26;20.10;99.90
6865;DHT22;3471;49.678;8.388;2022-10-29T16:49:52;20.00;99.90
6865;DHT22;3471;49.678;8.388;2022-10-29T16:52:18;20.00;99.90
6865;DHT22;3471;49.678;8.388;2022-10-29T16:54:44;19.90;99.90
6865;DHT22;3471;49.678;8.388;2022-10-29T16:57:11;19.80;99.90
6865;DHT22;3471;49.678;8.388;2022-10-29T16:59:37;19.80;99.90
6865;DHT22;3471;49.678;8.388;2022-10-29T17:02:02;19.70;99.90
6865;DHT22;3471;49.678;8.388;2022-10-29T17:04:28;19.70;99.90
6865;DHT22;3471;49.678;8.388;2022-10-29T17:06:54;19.60;99.90
6865;DHT22;3471;49.678;8.388;2022-10-29T17:09:19;19.60;99.90
6865;DHT22;3471;49.678;8.388;2022-10-29T17:11:45;19.50;99.90
6865;DHT22;3471;49.678;8.388;2022-10-29T17:14:11;19.50;99.90
6865;DHT22;3471;49.678;8.388;2022-10-29T17:16:36;19.40;99.90
6865;DHT22;3471;49.678;8.388;2022-10-29T17:19:02;19.40;99.90
6865;DHT22;3471;49.678;8.388;2022-10-29T17:21:31;19.30;99.90
6865;DHT22;3471;49.678;8.388;2022-10-29T17:23:57;19.30;99.90
6865;DHT22;3471;49.678;8.388;2022-10-29T17:26:23;19.20;99.90
6865;DHT22;3471;49.678;8.388;2022-10-29T17:28:49;19.20;99.90
6865;DHT22;3471;49.678;8.388;2022-10-29T17:31:14;19.10;99.90
6865;DHT22;3471;49.678;8.388;2022-10-29T17:33:40;19.10;99.90
6865;DHT22;3471;49.678;8.388;2022-10-29T17:36:13;19.00;99.90
6865;DHT22;3471;49.678;8.388;2022-10-29T17:38:40;19.00;99.90
6865;DHT22;3471;49.678;8.388;2022-10-29T17:41:05;18.90;99.90
6865;DHT22;3471;49.678;8.388;2022-10-29T17:43:31;18.90;99.90
6865;DHT22;3471;49.678;8.388;2022-10-29T17:45:57;18.80;99.90
6865;DHT22;3471;49.678;8.388;2022-10-29T17:48:23;18.80;99.90
6865;DHT22;3471;49.678;8.388;2022-10-29T17:51:00;18.70;99.90
6865;DHT22;3471;49.678;8.388;2022-10-29T17:53:27;18.70;99.90
6865;DHT22;3471;49.678;8.388;2022-10-29T17:55:56;18.60;99.90
6865;DHT22;3471;49.678;8.388;2022-10-29T17:58:22;18.60;99.90
6865;DHT22;3471;49.678;8.388;2022-10-29T18:00:48;18.60;99.90
6865;DHT22;3471;49.678;8.388;2022-10-29T18:03:13;18.50;99.90
6865;DHT22;3471;49.678;8.388;2022-10-29T18:05:39;18.50;99.90
6865;DHT22;3471;49.678;8.388;2022-10-29T18:08:05;18.40;99.90
6865;DHT22;3471;49.678;8.388;2022-10-29T18:10:31;18.40;99.90
6865;DHT22;3471;49.678;8.388;2022-10-29T18:12:57;18.40;99.90
6865;DHT22;3471;49.678;8.388;2022-10-29T18:15:22;18.30;99.90
6865;DHT22;3471;49.678;8.388;2022-10-29T18:17:48;18.30;99.90
6865;DHT22;3471;49.678;8.388;2022-10-29T18:20:14;18.30;99.90
6865;DHT22;3471;49.678;8.388;2022-10-29T18:22:39;18.30;99.90
6865;DHT22;3471;49.678;8.388;2022-10-29T18:25:05;18.20;99.90
6865;DHT22;3471;49.678;8.388;2022-10-29T18:27:31;18.20;99.90
6865;DHT22;3471;49.678;8.388;2022-10-29T18:29:56;18.20;99.90
6865;DHT22;3471;49.678;8.388;2022-10-29T18:32:22;18.10;99.90
6865;DHT22;3471;49.678;8.388;2022-10-29T18:34:48;18.20;99.90
6865;DHT22;3471;49.678;8.388;2022-10-29T18:37:13;18.10;99.90
6865;DHT22;3471;49.678;8.388;2022-10-29T18:39:39;18.10;99.90
6865;DHT22;3471;49.678;8.388;2022-10-29T18:42:04;18.10;99.90
6865;DHT22;3471;49.678;8.388;2022-10-29T18:44:30;18.00;99.90
6865;DHT22;3471;49.678;8.388;2022-10-29T18:46:56;18.00;99.90
6865;DHT22;3471;49.678;8.388;2022-10-29T18:49:22;18.00;99.90
6865;DHT22;3471;49.678;8.388;2022-10-29T18:51:47;18.00;99.90
6865;DHT22;3471;49.678;8.388;2022-10-29T18:54:13;18.00;99.90
6865;DHT22;3471;49.678;8.388;2022-10-29T18:56:39;17.90;99.90